In Rescue
 
Open Full Screen Window  High Contrast Mode
Wind Gusting 00 knots
07
October 29, 2020 10:54 PM CDT
Present Weather: Rain
Weather Information
Wind Direction
  240 °
Wind Speed
  07 kt (8 mph)
Wind Gust
  00 kt (0 mph)
Altimeter
30.15 in
Visibility
10 SM
Temperature
00° C
32° F
Dewpoint
-02° C
28° F
Humidity
87%
1hr Rain Fall
00.00 in.
24hr Rain Fall
00.00 in.
Sky Condition
Overcast @ 5,000 ft
Scattered @ 3,400 ft
Scattered @ 2,600 ft
VFR

METAR KBBB 300354Z AUTO 24007KT 10SM RA SCT026 SCT034 OVC050 00/M02 A3015 RMK AO2

FAA Disclaimer: The data displayed is for advisory purposes only and is not to be used for flight planning or operations.